Kildonan, Canada
Current Conditions -  °F | °C
As of 6:00 PM on Tuesday 21 Oct 2014 (Local Time) from CYAZ Reporting Station
Thunderstorm Thunderstorm  
Wind Chill: 52°   Ceiling: 1600
Heat Index: 52°   Visibility: 1.5mi
Dew Point: 50°   Wind: 5mph
Humidity: 94%   Direction: 40°NE
Pressure: 29.62"   Gusts: NA
Location:  49.02°N, 125°W
Report Text: CYAZ 220100Z 04004KT 020V090 1 1/2SM -TSRA BR SCT004 BKN016 OVC020 11/10 A2962 RMK SF3CF4SC1 LAST OBS/NEXT 221300UTC PRESFR SLP029
Loading
Personal Weather Stations






























Interactive Weather Map
Tropical Storm Tracking
New forecast layout! Learn more

10-Day Weather Forecast

Advertisements
Track Severe Weather on mobile